sensor_id;sensor_type;location;lat;lon;timestamp;P1;durP1;ratioP1;P2;durP2;ratioP2
18387;SDS011;9320;50.256;19.026;2023-05-14T00:01:46;25.73;;;14.27;;
18387;SDS011;9320;50.256;19.026;2023-05-14T00:04:14;31.70;;;14.03;;
18387;SDS011;9320;50.256;19.026;2023-05-14T00:06:42;30.80;;;16.07;;
18387;SDS011;9320;50.256;19.026;2023-05-14T00:09:10;26.67;;;15.60;;
18387;SDS011;9320;50.256;19.026;2023-05-14T00:11:38;35.30;;;14.80;;
18387;SDS011;9320;50.256;19.026;2023-05-14T00:14:06;28.43;;;14.53;;
18387;SDS011;9320;50.256;19.026;2023-05-14T00:16:34;28.47;;;14.67;;
18387;SDS011;9320;50.256;19.026;2023-05-14T00:19:04;24.90;;;14.20;;
18387;SDS011;9320;50.256;19.026;2023-05-14T00:21:32;25.63;;;14.33;;
18387;SDS011;9320;50.256;19.026;2023-05-14T00:24:00;23.90;;;14.57;;
18387;SDS011;9320;50.256;19.026;2023-05-14T00:26:28;27.37;;;14.63;;
18387;SDS011;9320;50.256;19.026;2023-05-14T00:28:56;24.70;;;13.67;;
18387;SDS011;9320;50.256;19.026;2023-05-14T00:31:24;23.00;;;13.87;;
18387;SDS011;9320;50.256;19.026;2023-05-14T00:33:52;26.03;;;14.73;;
18387;SDS011;9320;50.256;19.026;2023-05-14T00:36:21;24.83;;;13.70;;
18387;SDS011;9320;50.256;19.026;2023-05-14T00:38:49;25.90;;;15.17;;
18387;SDS011;9320;50.256;19.026;2023-05-14T00:41:17;25.33;;;14.33;;
18387;SDS011;9320;50.256;19.026;2023-05-14T00:43:46;26.83;;;14.00;;
18387;SDS011;9320;50.256;19.026;2023-05-14T00:46:14;24.73;;;14.57;;
18387;SDS011;9320;50.256;19.026;2023-05-14T00:48:43;25.93;;;13.63;;
18387;SDS011;9320;50.256;19.026;2023-05-14T00:51:11;29.57;;;15.00;;
18387;SDS011;9320;50.256;19.026;2023-05-14T00:53:41;24.50;;;14.60;;
18387;SDS011;9320;50.256;19.026;2023-05-14T00:56:10;25.20;;;14.73;;
18387;SDS011;9320;50.256;19.026;2023-05-14T00:58:38;23.53;;;14.23;;
18387;SDS011;9320;50.256;19.026;2023-05-14T01:01:06;26.20;;;15.67;;
18387;SDS011;9320;50.256;19.026;2023-05-14T01:03:34;25.97;;;14.83;;
18387;SDS011;9320;50.256;19.026;2023-05-14T01:06:06;23.13;;;14.77;;
18387;SDS011;9320;50.256;19.026;2023-05-14T01:08:42;28.03;;;14.80;;
18387;SDS011;9320;50.256;19.026;2023-05-14T01:11:18;28.50;;;14.77;;
18387;SDS011;9320;50.256;19.026;2023-05-14T01:13:52;27.30;;;14.20;;
18387;SDS011;9320;50.256;19.026;2023-05-14T01:16:29;26.63;;;14.07;;
18387;SDS011;9320;50.256;19.026;2023-05-14T01:19:00;32.83;;;16.40;;
18387;SDS011;9320;50.256;19.026;2023-05-14T01:21:36;25.33;;;15.93;;
18387;SDS011;9320;50.256;19.026;2023-05-14T01:24:06;29.30;;;14.83;;
18387;SDS011;9320;50.256;19.026;2023-05-14T01:26:34;25.10;;;15.33;;
18387;SDS011;9320;50.256;19.026;2023-05-14T01:29:05;24.27;;;13.53;;
18387;SDS011;9320;50.256;19.026;2023-05-14T01:31:39;24.87;;;14.43;;
18387;SDS011;9320;50.256;19.026;2023-05-14T01:34:12;21.00;;;13.47;;
18387;SDS011;9320;50.256;19.026;2023-05-14T01:36:43;24.73;;;13.97;;
18387;SDS011;9320;50.256;19.026;2023-05-14T01:39:11;21.67;;;13.23;;
18387;SDS011;9320;50.256;19.026;2023-05-14T01:41:41;21.90;;;13.40;;
18387;SDS011;9320;50.256;19.026;2023-05-14T01:44:10;23.27;;;13.93;;
18387;SDS011;9320;50.256;19.026;2023-05-14T01:46:38;22.43;;;13.13;;
18387;SDS011;9320;50.256;19.026;2023-05-14T01:49:07;21.60;;;13.47;;
18387;SDS011;9320;50.256;19.026;2023-05-14T01:51:35;23.13;;;13.77;;
18387;SDS011;9320;50.256;19.026;2023-05-14T01:54:04;19.43;;;12.87;;
18387;SDS011;9320;50.256;19.026;2023-05-14T01:56:32;21.87;;;13.90;;
18387;SDS011;9320;50.256;19.026;2023-05-14T01:59:00;24.27;;;13.67;;
18387;SDS011;9320;50.256;19.026;2023-05-14T02:01:28;25.17;;;14.47;;
18387;SDS011;9320;50.256;19.026;2023-05-14T02:03:57;22.17;;;13.37;;
18387;SDS011;9320;50.256;19.026;2023-05-14T02:06:26;20.30;;;13.33;;
18387;SDS011;9320;50.256;19.026;2023-05-14T02:08:54;23.07;;;13.47;;
18387;SDS011;9320;50.256;19.026;2023-05-14T02:11:23;24.27;;;15.17;;
18387;SDS011;9320;50.256;19.026;2023-05-14T02:13:51;26.33;;;16.90;;
18387;SDS011;9320;50.256;19.026;2023-05-14T02:16:19;24.30;;;15.43;;
18387;SDS011;9320;50.256;19.026;2023-05-14T02:18:47;26.87;;;16.13;;
18387;SDS011;9320;50.256;19.026;2023-05-14T02:21:15;25.03;;;14.97;;
18387;SDS011;9320;50.256;19.026;2023-05-14T02:23:43;23.53;;;14.17;;
18387;SDS011;9320;50.256;19.026;2023-05-14T02:26:11;20.23;;;14.60;;
18387;SDS011;9320;50.256;19.026;2023-05-14T02:28:40;23.30;;;13.53;;
18387;SDS011;9320;50.256;19.026;2023-05-14T02:31:09;23.77;;;14.40;;
18387;SDS011;9320;50.256;19.026;2023-05-14T02:33:37;21.60;;;13.93;;
18387;SDS011;9320;50.256;19.026;2023-05-14T02:36:05;23.00;;;13.60;;
18387;SDS011;9320;50.256;19.026;2023-05-14T02:38:33;20.97;;;13.90;;
18387;SDS011;9320;50.256;19.026;2023-05-14T02:41:01;21.93;;;14.70;;
18387;SDS011;9320;50.256;19.026;2023-05-14T02:43:29;23.07;;;13.93;;
18387;SDS011;9320;50.256;19.026;2023-05-14T02:45:59;24.40;;;14.07;;
18387;SDS011;9320;50.256;19.026;2023-05-14T02:48:27;22.97;;;13.60;;
18387;SDS011;9320;50.256;19.026;2023-05-14T02:50:55;21.70;;;14.07;;
18387;SDS011;9320;50.256;19.026;2023-05-14T02:53:23;23.37;;;14.10;;
18387;SDS011;9320;50.256;19.026;2023-05-14T02:55:51;22.10;;;13.90;;
18387;SDS011;9320;50.256;19.026;2023-05-14T02:58:19;22.67;;;13.63;;
18387;SDS011;9320;50.256;19.026;2023-05-14T03:00:53;20.53;;;13.50;;
18387;SDS011;9320;50.256;19.026;2023-05-14T03:03:23;22.50;;;14.40;;
18387;SDS011;9320;50.256;19.026;2023-05-14T03:05:52;22.50;;;14.17;;
18387;SDS011;9320;50.256;19.026;2023-05-14T03:08:20;21.13;;;15.10;;
18387;SDS011;9320;50.256;19.026;2023-05-14T03:10:48;28.50;;;15.40;;
18387;SDS011;9320;50.256;19.026;2023-05-14T03:13:16;31.73;;;15.73;;
18387;SDS011;9320;50.256;19.026;2023-05-14T03:15:45;25.93;;;14.33;;
18387;SDS011;9320;50.256;19.026;2023-05-14T03:18:14;26.07;;;14.70;;
18387;SDS011;9320;50.256;19.026;2023-05-14T03:20:43;25.20;;;15.37;;
18387;SDS011;9320;50.256;19.026;2023-05-14T03:23:11;26.90;;;14.90;;
18387;SDS011;9320;50.256;19.026;2023-05-14T03:25:40;23.93;;;14.73;;
18387;SDS011;9320;50.256;19.026;2023-05-14T03:28:08;24.10;;;14.90;;
18387;SDS011;9320;50.256;19.026;2023-05-14T03:30:36;25.70;;;15.40;;
18387;SDS011;9320;50.256;19.026;2023-05-14T03:33:04;29.07;;;16.40;;
18387;SDS011;9320;50.256;19.026;2023-05-14T03:35:32;23.10;;;15.43;;
18387;SDS011;9320;50.256;19.026;2023-05-14T03:38:01;24.93;;;16.53;;
18387;SDS011;9320;50.256;19.026;2023-05-14T03:40:29;25.77;;;17.10;;
18387;SDS011;9320;50.256;19.026;2023-05-14T03:42:57;29.77;;;19.67;;
18387;SDS011;9320;50.256;19.026;2023-05-14T03:45:25;27.07;;;18.40;;
18387;SDS011;9320;50.256;19.026;2023-05-14T03:47:55;21.93;;;16.37;;
18387;SDS011;9320;50.256;19.026;2023-05-14T03:50:23;20.73;;;15.33;;
18387;SDS011;9320;50.256;19.026;2023-05-14T03:52:51;24.17;;;16.90;;
18387;SDS011;9320;50.256;19.026;2023-05-14T03:55:21;24.53;;;15.53;;
18387;SDS011;9320;50.256;19.026;2023-05-14T03:57:49;22.50;;;15.77;;
18387;SDS011;9320;50.256;19.026;2023-05-14T04:00:18;24.10;;;14.93;;
18387;SDS011;9320;50.256;19.026;2023-05-14T04:02:46;23.90;;;15.60;;
18387;SDS011;9320;50.256;19.026;2023-05-14T04:05:15;22.53;;;15.53;;
18387;SDS011;9320;50.256;19.026;2023-05-14T04:07:43;22.47;;;15.50;;
18387;SDS011;9320;50.256;19.026;2023-05-14T04:10:11;21.40;;;14.77;;
18387;SDS011;9320;50.256;19.026;2023-05-14T04:12:41;22.10;;;14.20;;
18387;SDS011;9320;50.256;19.026;2023-05-14T04:15:09;20.27;;;14.87;;
18387;SDS011;9320;50.256;19.026;2023-05-14T04:17:37;22.57;;;14.57;;
18387;SDS011;9320;50.256;19.026;2023-05-14T04:20:06;19.87;;;14.33;;
18387;SDS011;9320;50.256;19.026;2023-05-14T04:22:35;20.40;;;14.50;;
18387;SDS011;9320;50.256;19.026;2023-05-14T04:25:03;18.63;;;14.93;;
18387;SDS011;9320;50.256;19.026;2023-05-14T04:27:31;18.60;;;14.77;;
18387;SDS011;9320;50.256;19.026;2023-05-14T04:30:01;22.17;;;15.63;;
18387;SDS011;9320;50.256;19.026;2023-05-14T04:32:29;18.77;;;15.03;;
18387;SDS011;9320;50.256;19.026;2023-05-14T04:34:57;18.10;;;14.40;;
18387;SDS011;9320;50.256;19.026;2023-05-14T04:37:25;18.17;;;14.57;;
18387;SDS011;9320;50.256;19.026;2023-05-14T04:39:53;19.03;;;14.10;;
18387;SDS011;9320;50.256;19.026;2023-05-14T04:42:21;18.50;;;14.60;;
18387;SDS011;9320;50.256;19.026;2023-05-14T04:44:49;16.73;;;13.53;;
18387;SDS011;9320;50.256;19.026;2023-05-14T04:47:18;19.63;;;13.60;;
18387;SDS011;9320;50.256;19.026;2023-05-14T04:49:47;19.10;;;13.40;;
18387;SDS011;9320;50.256;19.026;2023-05-14T04:52:15;16.80;;;13.57;;
18387;SDS011;9320;50.256;19.026;2023-05-14T04:54:43;14.77;;;11.80;;
18387;SDS011;9320;50.256;19.026;2023-05-14T04:57:11;18.20;;;12.27;;
18387;SDS011;9320;50.256;19.026;2023-05-14T04:59:39;16.77;;;11.87;;
18387;SDS011;9320;50.256;19.026;2023-05-14T05:02:07;14.40;;;11.47;;
18387;SDS011;9320;50.256;19.026;2023-05-14T05:04:38;17.17;;;11.23;;
18387;SDS011;9320;50.256;19.026;2023-05-14T05:07:06;18.37;;;12.13;;
18387;SDS011;9320;50.256;19.026;2023-05-14T05:09:34;19.00;;;11.37;;
18387;SDS011;9320;50.256;19.026;2023-05-14T05:12:02;13.77;;;11.10;;
18387;SDS011;9320;50.256;19.026;2023-05-14T05:14:30;14.47;;;10.97;;
18387;SDS011;9320;50.256;19.026;2023-05-14T05:16:58;14.47;;;11.17;;
18387;SDS011;9320;50.256;19.026;2023-05-14T05:19:26;15.43;;;11.10;;
18387;SDS011;9320;50.256;19.026;2023-05-14T05:22:10;15.07;;;10.90;;
18387;SDS011;9320;50.256;19.026;2023-05-14T05:24:38;14.17;;;11.03;;
18387;SDS011;9320;50.256;19.026;2023-05-14T05:27:06;14.00;;;10.57;;
18387;SDS011;9320;50.256;19.026;2023-05-14T05:29:34;14.00;;;10.90;;
18387;SDS011;9320;50.256;19.026;2023-05-14T05:32:02;14.83;;;10.53;;
18387;SDS011;9320;50.256;19.026;2023-05-14T05:34:30;14.93;;;10.67;;
18387;SDS011;9320;50.256;19.026;2023-05-14T05:36:58;11.97;;;9.67;;
18387;SDS011;9320;50.256;19.026;2023-05-14T05:39:27;14.23;;;10.17;;
18387;SDS011;9320;50.256;19.026;2023-05-14T05:42:00;14.60;;;9.90;;
18387;SDS011;9320;50.256;19.026;2023-05-14T05:44:28;12.17;;;9.43;;
18387;SDS011;9320;50.256;19.026;2023-05-14T05:46:56;11.60;;;9.30;;
18387;SDS011;9320;50.256;19.026;2023-05-14T05:49:24;11.83;;;8.97;;
18387;SDS011;9320;50.256;19.026;2023-05-14T05:51:52;10.73;;;8.87;;
18387;SDS011;9320;50.256;19.026;2023-05-14T05:54:21;12.87;;;9.17;;
18387;SDS011;9320;50.256;19.026;2023-05-14T05:56:51;11.00;;;9.00;;
18387;SDS011;9320;50.256;19.026;2023-05-14T05:59:19;11.67;;;8.43;;
18387;SDS011;9320;50.256;19.026;2023-05-14T06:01:47;9.20;;;8.30;;
18387;SDS011;9320;50.256;19.026;2023-05-14T06:04:16;9.30;;;7.87;;
18387;SDS011;9320;50.256;19.026;2023-05-14T06:06:44;9.53;;;7.80;;
18387;SDS011;9320;50.256;19.026;2023-05-14T06:09:11;10.83;;;7.87;;
18387;SDS011;9320;50.256;19.026;2023-05-14T06:11:39;8.73;;;7.83;;
18387;SDS011;9320;50.256;19.026;2023-05-14T06:14:09;8.40;;;7.53;;
18387;SDS011;9320;50.256;19.026;2023-05-14T06:16:37;8.30;;;7.47;;
18387;SDS011;9320;50.256;19.026;2023-05-14T06:19:05;8.60;;;7.73;;
18387;SDS011;9320;50.256;19.026;2023-05-14T06:21:34;10.47;;;8.03;;
18387;SDS011;9320;50.256;19.026;2023-05-14T06:24:02;10.43;;;7.90;;
18387;SDS011;9320;50.256;19.026;2023-05-14T06:26:30;8.07;;;7.27;;
18387;SDS011;9320;50.256;19.026;2023-05-14T06:28:58;8.53;;;7.63;;
18387;SDS011;9320;50.256;19.026;2023-05-14T06:31:28;9.20;;;7.43;;
18387;SDS011;9320;50.256;19.026;2023-05-14T06:33:56;9.60;;;7.30;;
18387;SDS011;9320;50.256;19.026;2023-05-14T06:36:24;9.80;;;7.37;;
18387;SDS011;9320;50.256;19.026;2023-05-14T06:38:52;7.97;;;7.17;;
18387;SDS011;9320;50.256;19.026;2023-05-14T06:41:20;7.20;;;6.50;;
18387;SDS011;9320;50.256;19.026;2023-05-14T06:43:48;7.33;;;6.63;;
18387;SDS011;9320;50.256;19.026;2023-05-14T06:46:16;7.27;;;6.53;;
18387;SDS011;9320;50.256;19.026;2023-05-14T06:48:45;7.40;;;6.70;;
18387;SDS011;9320;50.256;19.026;2023-05-14T06:51:13;8.77;;;6.10;;
18387;SDS011;9320;50.256;19.026;2023-05-14T06:53:41;7.60;;;6.80;;
18387;SDS011;9320;50.256;19.026;2023-05-14T06:56:09;7.15;;;6.45;;
18387;SDS011;9320;50.256;19.026;2023-05-14T06:58:38;7.43;;;6.67;;
18387;SDS011;9320;50.256;19.026;2023-05-14T07:01:06;7.10;;;6.40;;
18387;SDS011;9320;50.256;19.026;2023-05-14T07:03:34;7.25;;;6.22;;
18387;SDS011;9320;50.256;19.026;2023-05-14T07:06:04;7.35;;;6.30;;
18387;SDS011;9320;50.256;19.026;2023-05-14T07:08:33;7.77;;;5.97;;
18387;SDS011;9320;50.256;19.026;2023-05-14T07:11:01;10.63;;;6.70;;
18387;SDS011;9320;50.256;19.026;2023-05-14T07:13:29;7.78;;;6.63;;
18387;SDS011;9320;50.256;19.026;2023-05-14T07:15:57;6.80;;;6.23;;
18387;SDS011;9320;50.256;19.026;2023-05-14T07:18:25;8.23;;;6.20;;
18387;SDS011;9320;50.256;19.026;2023-05-14T07:20:54;6.87;;;6.27;;
18387;SDS011;9320;50.256;19.026;2023-05-14T07:23:23;7.00;;;6.30;;
18387;SDS011;9320;50.256;19.026;2023-05-14T07:25:51;6.38;;;5.82;;
18387;SDS011;9320;50.256;19.026;2023-05-14T07:28:19;7.15;;;6.25;;
18387;SDS011;9320;50.256;19.026;2023-05-14T07:30:47;7.18;;;6.47;;
18387;SDS011;9320;50.256;19.026;2023-05-14T07:33:15;6.93;;;6.28;;
18387;SDS011;9320;50.256;19.026;2023-05-14T07:35:43;7.78;;;6.15;;
18387;SDS011;9320;50.256;19.026;2023-05-14T07:38:11;8.85;;;6.20;;
18387;SDS011;9320;50.256;19.026;2023-05-14T07:40:40;8.55;;;6.63;;
18387;SDS011;9320;50.256;19.026;2023-05-14T07:43:09;6.93;;;6.32;;
18387;SDS011;9320;50.256;19.026;2023-05-14T07:45:37;7.38;;;6.63;;
18387;SDS011;9320;50.256;19.026;2023-05-14T07:48:05;9.95;;;6.72;;
18387;SDS011;9320;50.256;19.026;2023-05-14T07:50:34;7.93;;;6.47;;
18387;SDS011;9320;50.256;19.026;2023-05-14T07:53:02;7.97;;;7.22;;
18387;SDS011;9320;50.256;19.026;2023-05-14T07:55:30;8.75;;;6.70;;
18387;SDS011;9320;50.256;19.026;2023-05-14T07:57:59;7.15;;;6.45;;
18387;SDS011;9320;50.256;19.026;2023-05-14T08:00:27;8.95;;;6.57;;
18387;SDS011;9320;50.256;19.026;2023-05-14T08:02:55;7.25;;;6.55;;
18387;SDS011;9320;50.256;19.026;2023-05-14T08:05:24;7.45;;;6.47;;
18387;SDS011;9320;50.256;19.026;2023-05-14T08:07:52;6.88;;;6.28;;
18387;SDS011;9320;50.256;19.026;2023-05-14T08:10:20;7.53;;;6.10;;
18387;SDS011;9320;50.256;19.026;2023-05-14T08:12:49;7.43;;;5.63;;
18387;SDS011;9320;50.256;19.026;2023-05-14T08:15:18;6.60;;;5.97;;
18387;SDS011;9320;50.256;19.026;2023-05-14T08:17:46;6.75;;;6.05;;
18387;SDS011;9320;50.256;19.026;2023-05-14T08:20:14;6.88;;;6.20;;
18387;SDS011;9320;50.256;19.026;2023-05-14T08:22:43;7.00;;;6.30;;
18387;SDS011;9320;50.256;19.026;2023-05-14T08:25:11;10.45;;;6.40;;
18387;SDS011;9320;50.256;19.026;2023-05-14T08:27:39;7.78;;;6.38;;
18387;SDS011;9320;50.256;19.026;2023-05-14T08:30:07;7.15;;;6.10;;
18387;SDS011;9320;50.256;19.026;2023-05-14T08:32:36;7.28;;;6.38;;
18387;SDS011;9320;50.256;19.026;2023-05-14T08:35:05;6.90;;;6.22;;
18387;SDS011;9320;50.256;19.026;2023-05-14T08:37:33;6.82;;;6.22;;
18387;SDS011;9320;50.256;19.026;2023-05-14T08:40:01;9.02;;;6.20;;
18387;SDS011;9320;50.256;19.026;2023-05-14T08:42:29;9.73;;;5.90;;
18387;SDS011;9320;50.256;19.026;2023-05-14T08:44:59;7.05;;;5.80;;
18387;SDS011;9320;50.256;19.026;2023-05-14T08:47:28;6.45;;;5.85;;
18387;SDS011;9320;50.256;19.026;2023-05-14T08:49:59;6.80;;;5.90;;
18387;SDS011;9320;50.256;19.026;2023-05-14T08:52:29;6.90;;;6.20;;
18387;SDS011;9320;50.256;19.026;2023-05-14T08:54:59;8.13;;;6.00;;
18387;SDS011;9320;50.256;19.026;2023-05-14T08:57:30;6.72;;;5.70;;
18387;SDS011;9320;50.256;19.026;2023-05-14T08:59:59;6.60;;;6.00;;
18387;SDS011;9320;50.256;19.026;2023-05-14T09:02:33;6.45;;;5.85;;
18387;SDS011;9320;50.256;19.026;2023-05-14T09:05:03;8.00;;;6.00;;
18387;SDS011;9320;50.256;19.026;2023-05-14T09:07:32;6.68;;;5.97;;
18387;SDS011;9320;50.256;19.026;2023-05-14T09:10:00;8.02;;;5.97;;
18387;SDS011;9320;50.256;19.026;2023-05-14T09:12:29;8.65;;;5.93;;
18387;SDS011;9320;50.256;19.026;2023-05-14T09:14:57;6.63;;;5.95;;
18387;SDS011;9320;50.256;19.026;2023-05-14T09:17:25;7.68;;;6.15;;
18387;SDS011;9320;50.256;19.026;2023-05-14T09:19:54;6.65;;;5.95;;
18387;SDS011;9320;50.256;19.026;2023-05-14T09:22:24;7.68;;;5.53;;
18387;SDS011;9320;50.256;19.026;2023-05-14T09:25:02;7.35;;;5.60;;
18387;SDS011;9320;50.256;19.026;2023-05-14T09:27:31;6.13;;;5.43;;
18387;SDS011;9320;50.256;19.026;2023-05-14T09:30:03;9.30;;;5.55;;
18387;SDS011;9320;50.256;19.026;2023-05-14T09:32:36;7.70;;;5.40;;
18387;SDS011;9320;50.256;19.026;2023-05-14T09:35:12;7.90;;;5.35;;
18387;SDS011;9320;50.256;19.026;2023-05-14T09:37:45;6.15;;;5.55;;
18387;SDS011;9320;50.256;19.026;2023-05-14T09:40:15;6.47;;;5.78;;
18387;SDS011;9320;50.256;19.026;2023-05-14T09:42:44;6.32;;;5.68;;
18387;SDS011;9320;50.256;19.026;2023-05-14T09:45:13;6.43;;;5.80;;
18387;SDS011;9320;50.256;19.026;2023-05-14T09:47:42;6.28;;;5.68;;
18387;SDS011;9320;50.256;19.026;2023-05-14T09:50:11;7.25;;;5.50;;
18387;SDS011;9320;50.256;19.026;2023-05-14T09:52:39;7.85;;;5.70;;
18387;SDS011;9320;50.256;19.026;2023-05-14T09:55:09;7.30;;;5.55;;
18387;SDS011;9320;50.256;19.026;2023-05-14T09:57:37;20.50;;;6.53;;
18387;SDS011;9320;50.256;19.026;2023-05-14T10:00:05;12.25;;;5.93;;
18387;SDS011;9320;50.256;19.026;2023-05-14T10:02:36;8.38;;;5.60;;
18387;SDS011;9320;50.256;19.026;2023-05-14T10:05:06;8.13;;;5.45;;
18387;SDS011;9320;50.256;19.026;2023-05-14T10:07:37;7.10;;;5.45;;
18387;SDS011;9320;50.256;19.026;2023-05-14T10:10:12;6.90;;;5.30;;
18387;SDS011;9320;50.256;19.026;2023-05-14T10:12:43;6.20;;;5.60;;
18387;SDS011;9320;50.256;19.026;2023-05-14T10:15:18;6.25;;;5.38;;
18387;SDS011;9320;50.256;19.026;2023-05-14T10:17:55;22.63;;;6.57;;
18387;SDS011;9320;50.256;19.026;2023-05-14T10:20:25;6.50;;;5.57;;
18387;SDS011;9320;50.256;19.026;2023-05-14T10:22:54;6.80;;;5.65;;
18387;SDS011;9320;50.256;19.026;2023-05-14T10:25:24;8.77;;;5.65;;
18387;SDS011;9320;50.256;19.026;2023-05-14T10:27:53;9.50;;;5.72;;
18387;SDS011;9320;50.256;19.026;2023-05-14T10:30:21;11.50;;;6.20;;
18387;SDS011;9320;50.256;19.026;2023-05-14T10:33:04;8.48;;;5.07;;
18387;SDS011;9320;50.256;19.026;2023-05-14T10:38:25;6.57;;;5.60;;
18387;SDS011;9320;50.256;19.026;2023-05-14T10:40:59;7.32;;;5.40;;
18387;SDS011;9320;50.256;19.026;2023-05-14T10:43:28;8.40;;;5.47;;
18387;SDS011;9320;50.256;19.026;2023-05-14T10:45:57;7.30;;;5.68;;
18387;SDS011;9320;50.256;19.026;2023-05-14T10:48:26;7.15;;;5.60;;
18387;SDS011;9320;50.256;19.026;2023-05-14T10:50:55;13.77;;;6.32;;
18387;SDS011;9320;50.256;19.026;2023-05-14T10:53:33;9.23;;;5.90;;
18387;SDS011;9320;50.256;19.026;2023-05-14T10:56:04;5.95;;;5.40;;
18387;SDS011;9320;50.256;19.026;2023-05-14T10:58:34;8.13;;;5.60;;
18387;SDS011;9320;50.256;19.026;2023-05-14T11:01:04;12.02;;;5.63;;
18387;SDS011;9320;50.256;19.026;2023-05-14T11:03:37;8.95;;;5.28;;
18387;SDS011;9320;50.256;19.026;2023-05-14T11:06:07;15.43;;;5.70;;
18387;SDS011;9320;50.256;19.026;2023-05-14T11:08:36;7.32;;;5.20;;
18387;SDS011;9320;50.256;19.026;2023-05-14T11:11:07;6.32;;;5.38;;
18387;SDS011;9320;50.256;19.026;2023-05-14T11:13:35;5.60;;;5.10;;
18387;SDS011;9320;50.256;19.026;2023-05-14T11:16:04;7.68;;;5.00;;
18387;SDS011;9320;50.256;19.026;2023-05-14T11:18:51;5.88;;;5.07;;
18387;SDS011;9320;50.256;19.026;2023-05-14T11:21:21;5.60;;;5.10;;
18387;SDS011;9320;50.256;19.026;2023-05-14T11:23:49;7.68;;;5.55;;
18387;SDS011;9320;50.256;19.026;2023-05-14T11:26:18;6.22;;;5.07;;
18387;SDS011;9320;50.256;19.026;2023-05-14T11:28:47;12.50;;;5.65;;
18387;SDS011;9320;50.256;19.026;2023-05-14T11:31:15;19.08;;;6.38;;
18387;SDS011;9320;50.256;19.026;2023-05-14T11:33:44;9.63;;;5.45;;
18387;SDS011;9320;50.256;19.026;2023-05-14T11:36:12;11.18;;;5.55;;
18387;SDS011;9320;50.256;19.026;2023-05-14T11:38:46;5.43;;;4.97;;
18387;SDS011;9320;50.256;19.026;2023-05-14T11:41:16;6.00;;;5.35;;
18387;SDS011;9320;50.256;19.026;2023-05-14T11:43:48;8.27;;;5.22;;
18387;SDS011;9320;50.256;19.026;2023-05-14T11:46:16;8.75;;;5.43;;
18387;SDS011;9320;50.256;19.026;2023-05-14T11:48:45;5.85;;;5.32;;
18387;SDS011;9320;50.256;19.026;2023-05-14T11:51:13;15.50;;;5.57;;
18387;SDS011;9320;50.256;19.026;2023-05-14T11:53:41;8.88;;;5.43;;
18387;SDS011;9320;50.256;19.026;2023-05-14T11:56:11;5.30;;;4.80;;
18387;SDS011;9320;50.256;19.026;2023-05-14T11:58:45;9.57;;;5.38;;
18387;SDS011;9320;50.256;19.026;2023-05-14T12:01:14;5.43;;;4.88;;
18387;SDS011;9320;50.256;19.026;2023-05-14T12:03:42;5.63;;;4.95;;
18387;SDS011;9320;50.256;19.026;2023-05-14T12:06:10;8.07;;;4.43;;
18387;SDS011;9320;50.256;19.026;2023-05-14T12:08:38;5.90;;;4.57;;
18387;SDS011;9320;50.256;19.026;2023-05-14T12:11:07;6.95;;;4.80;;
18387;SDS011;9320;50.256;19.026;2023-05-14T12:13:35;5.88;;;4.50;;
18387;SDS011;9320;50.256;19.026;2023-05-14T12:16:05;7.18;;;4.35;;
18387;SDS011;9320;50.256;19.026;2023-05-14T12:18:33;8.52;;;4.82;;
18387;SDS011;9320;50.256;19.026;2023-05-14T12:21:01;5.32;;;4.53;;
18387;SDS011;9320;50.256;19.026;2023-05-14T12:23:30;6.03;;;4.40;;
18387;SDS011;9320;50.256;19.026;2023-05-14T12:26:02;7.47;;;4.57;;
18387;SDS011;9320;50.256;19.026;2023-05-14T12:28:34;6.32;;;5.10;;
18387;SDS011;9320;50.256;19.026;2023-05-14T12:31:05;4.85;;;4.45;;
18387;SDS011;9320;50.256;19.026;2023-05-14T12:33:33;5.75;;;4.72;;
18387;SDS011;9320;50.256;19.026;2023-05-14T12:36:01;5.05;;;4.55;;
18387;SDS011;9320;50.256;19.026;2023-05-14T12:38:47;5.13;;;4.63;;
18387;SDS011;9320;50.256;19.026;2023-05-14T12:41:15;5.57;;;5.07;;
18387;SDS011;9320;50.256;19.026;2023-05-14T12:43:44;5.07;;;4.57;;
18387;SDS011;9320;50.256;19.026;2023-05-14T12:46:16;7.00;;;4.88;;
18387;SDS011;9320;50.256;19.026;2023-05-14T12:48:44;5.13;;;4.50;;
18387;SDS011;9320;50.256;19.026;2023-05-14T12:51:12;6.15;;;4.63;;
18387;SDS011;9320;50.256;19.026;2023-05-14T12:53:41;5.75;;;4.40;;
18387;SDS011;9320;50.256;19.026;2023-05-14T12:56:09;5.03;;;4.50;;
18387;SDS011;9320;50.256;19.026;2023-05-14T12:58:37;6.57;;;4.90;;
18387;SDS011;9320;50.256;19.026;2023-05-14T13:01:05;6.25;;;4.50;;
18387;SDS011;9320;50.256;19.026;2023-05-14T13:03:35;5.30;;;4.80;;
18387;SDS011;9320;50.256;19.026;2023-05-14T13:06:03;5.18;;;4.68;;
18387;SDS011;9320;50.256;19.026;2023-05-14T13:08:31;5.72;;;4.68;;
18387;SDS011;9320;50.256;19.026;2023-05-14T13:10:59;5.18;;;4.68;;
18387;SDS011;9320;50.256;19.026;2023-05-14T13:13:27;5.05;;;4.57;;
18387;SDS011;9320;50.256;19.026;2023-05-14T13:15:55;5.00;;;4.50;;
18387;SDS011;9320;50.256;19.026;2023-05-14T13:18:23;5.13;;;4.63;;
18387;SDS011;9320;50.256;19.026;2023-05-14T13:20:53;5.10;;;4.40;;
18387;SDS011;9320;50.256;19.026;2023-05-14T13:23:22;4.70;;;4.28;;
18387;SDS011;9320;50.256;19.026;2023-05-14T13:25:50;4.80;;;4.38;;
18387;SDS011;9320;50.256;19.026;2023-05-14T13:28:18;7.47;;;4.60;;
18387;SDS011;9320;50.256;19.026;2023-05-14T13:31:01;4.72;;;4.25;;
18387;SDS011;9320;50.256;19.026;2023-05-14T13:33:33;4.80;;;3.80;;
18387;SDS011;9320;50.256;19.026;2023-05-14T13:36:03;5.47;;;4.40;;
18387;SDS011;9320;50.256;19.026;2023-05-14T13:38:32;5.75;;;4.30;;
18387;SDS011;9320;50.256;19.026;2023-05-14T13:41:00;5.00;;;4.50;;
18387;SDS011;9320;50.256;19.026;2023-05-14T13:43:28;4.85;;;4.45;;
18387;SDS011;9320;50.256;19.026;2023-05-14T13:45:57;5.32;;;4.60;;
18387;SDS011;9320;50.256;19.026;2023-05-14T13:48:25;5.13;;;4.05;;
18387;SDS011;9320;50.256;19.026;2023-05-14T13:50:54;4.65;;;4.25;;
18387;SDS011;9320;50.256;19.026;2023-05-14T13:53:23;6.40;;;4.75;;
18387;SDS011;9320;50.256;19.026;2023-05-14T13:55:51;4.88;;;4.30;;
18387;SDS011;9320;50.256;19.026;2023-05-14T13:58:21;4.90;;;4.50;;
18387;SDS011;9320;50.256;19.026;2023-05-14T14:00:50;5.00;;;4.50;;
18387;SDS011;9320;50.256;19.026;2023-05-14T14:03:19;5.15;;;4.65;;
18387;SDS011;9320;50.256;19.026;2023-05-14T14:05:47;5.35;;;4.72;;
18387;SDS011;9320;50.256;19.026;2023-05-14T14:08:16;4.90;;;4.40;;
18387;SDS011;9320;50.256;19.026;2023-05-14T14:10:51;4.82;;;4.35;;
18387;SDS011;9320;50.256;19.026;2023-05-14T14:13:20;4.93;;;4.53;;
18387;SDS011;9320;50.256;19.026;2023-05-14T14:15:49;4.93;;;4.38;;
18387;SDS011;9320;50.256;19.026;2023-05-14T14:18:18;4.78;;;4.30;;
18387;SDS011;9320;50.256;19.026;2023-05-14T14:20:46;4.47;;;4.07;;
18387;SDS011;9320;50.256;19.026;2023-05-14T14:23:14;5.47;;;4.03;;
18387;SDS011;9320;50.256;19.026;2023-05-14T14:25:42;4.60;;;4.20;;
18387;SDS011;9320;50.256;19.026;2023-05-14T14:28:11;5.85;;;4.47;;
18387;SDS011;9320;50.256;19.026;2023-05-14T14:30:39;5.65;;;4.20;;
18387;SDS011;9320;50.256;19.026;2023-05-14T14:33:09;4.97;;;4.47;;
18387;SDS011;9320;50.256;19.026;2023-05-14T14:35:37;5.93;;;4.18;;
18387;SDS011;9320;50.256;19.026;2023-05-14T14:38:05;4.82;;;4.00;;
18387;SDS011;9320;50.256;19.026;2023-05-14T14:40:33;4.50;;;4.10;;
18387;SDS011;9320;50.256;19.026;2023-05-14T14:43:01;5.80;;;4.30;;
18387;SDS011;9320;50.256;19.026;2023-05-14T14:45:31;4.40;;;3.95;;
18387;SDS011;9320;50.256;19.026;2023-05-14T14:50:56;5.15;;;4.18;;
18387;SDS011;9320;50.256;19.026;2023-05-14T14:53:24;4.75;;;4.35;;